Time;durP1;ratioP1;P1;durP2;ratioP2;P2;SDS_P1;SDS_P2;PMS_P1;PMS_P2;Temp;Humidity;BMP_temperature;BMP_pressure;BME280_temperature;BME280_humidity;BME280_pressure;Samples;Min_cycle;Max_cycle;Signal;HPM_P1;HPM_P2
2021/05/12 00:00:19;;;;;;;30.90;27.80;;;13.80;99.90;;;;;;5008876;28;20201;-39
2021/05/12 00:02:46;;;;;;;28.83;25.83;;;13.60;99.90;;;;;;5000863;28;20224;-39
2021/05/12 00:05:14;;;;;;;33.97;30.40;;;13.60;99.90;;;;;;5009939;28;20228;-38
2021/05/12 00:07:41;;;;;;;31.15;27.83;;;13.60;99.90;;;;;;5011066;28;20201;-38
2021/05/12 00:10:11;;;;;;;30.70;27.42;;;13.70;99.90;;;;;;5009348;28;20454;-39
2021/05/12 00:12:38;;;;;;;32.72;29.45;;;13.70;99.90;;;;;;5009585;28;20217;-41
2021/05/12 00:15:08;;;;;;;30.88;27.63;;;13.80;99.90;;;;;;5012682;28;20204;-39
2021/05/12 00:17:36;;;;;;;32.15;28.83;;;13.80;99.90;;;;;;5012617;28;20732;-40
2021/05/12 00:20:06;;;;;;;29.30;26.50;;;13.60;99.90;;;;;;5012388;28;20547;-39
2021/05/12 00:22:38;;;;;;;30.10;26.08;;;13.60;99.90;;;;;;5012483;28;20288;-40
2021/05/12 00:25:08;;;;;;;30.23;27.02;;;13.60;99.90;;;;;;5012789;28;20247;-40
2021/05/12 00:27:36;;;;;;;31.58;26.73;;;13.50;99.90;;;;;;5008169;28;20193;-40
2021/05/12 00:30:04;;;;;;;30.05;26.67;;;13.50;99.90;;;;;;5010873;28;20203;-41
2021/05/12 00:32:31;;;;;;;32.67;29.30;;;13.60;99.90;;;;;;5012468;28;20201;-40
2021/05/12 00:35:05;;;;;;;30.33;26.77;;;13.60;99.90;;;;;;5012803;28;20284;-39
2021/05/12 00:37:32;;;;;;;34.50;27.88;;;13.70;99.90;;;;;;5012713;28;20212;-39
2021/05/12 00:39:58;;;;;;;33.78;30.10;;;13.50;99.90;;;;;;5012271;28;20331;-39
2021/05/12 00:42:28;;;;;;;36.97;30.48;;;13.50;99.90;;;;;;5012051;28;20472;-41
2021/05/12 00:44:56;;;;;;;30.55;26.83;;;13.50;99.90;;;;;;5013133;28;20274;-39
2021/05/12 00:47:26;;;;;;;32.40;28.95;;;13.60;99.90;;;;;;5011932;28;20599;-39
2021/05/12 00:49:54;;;;;;;35.42;30.67;;;13.70;99.90;;;;;;5012139;28;20213;-39
2021/05/12 00:52:21;;;;;;;35.80;29.33;;;13.80;99.90;;;;;;5012414;28;20205;-40
2021/05/12 00:54:48;;;;;;;31.63;26.67;;;13.80;99.90;;;;;;5012399;28;20205;-39
2021/05/12 00:57:15;;;;;;;31.52;28.30;;;13.70;99.90;;;;;;5011784;28;20312;-40
2021/05/12 00:59:43;;;;;;;30.95;27.75;;;13.70;99.90;;;;;;5012217;28;20651;-39
2021/05/12 01:02:11;;;;;;;33.08;29.48;;;13.80;99.90;;;;;;5012368;28;20197;-39
2021/05/12 01:04:38;;;;;;;31.60;28.23;;;13.70;99.90;;;;;;5012153;28;20209;-39
2021/05/12 01:07:06;;;;;;;30.08;25.75;;;13.70;99.90;;;;;;5012426;28;20617;-39
2021/05/12 01:09:33;;;;;;;29.00;26.00;;;13.70;99.90;;;;;;5012212;28;20228;-42
2021/05/12 01:12:00;;;;;;;31.63;27.45;;;13.80;99.90;;;;;;5011877;28;20200;-40
2021/05/12 01:14:27;;;;;;;29.45;26.30;;;13.60;99.90;;;;;;5011933;28;20253;-39
2021/05/12 01:16:54;;;;;;;34.15;28.70;;;13.50;99.90;;;;;;5011327;28;20201;-39
2021/05/12 01:19:22;;;;;;;29.38;26.45;;;13.50;99.90;;;;;;5010759;28;20204;-39
2021/05/12 01:21:49;;;;;;;34.58;28.25;;;13.40;99.90;;;;;;5011556;28;20200;-39
2021/05/12 01:24:16;;;;;;;32.03;28.80;;;13.40;99.90;;;;;;5010957;28;20279;-38
2021/05/12 01:26:43;;;;;;;30.83;27.48;;;13.40;99.90;;;;;;5011801;28;20196;-39
2021/05/12 01:29:10;;;;;;;29.10;25.95;;;13.40;99.90;;;;;;5011435;28;20280;-39
2021/05/12 01:31:39;;;;;;;30.88;25.15;;;13.40;99.90;;;;;;5011722;28;20204;-41
2021/05/12 01:34:11;;;;;;;30.23;27.20;;;13.50;99.90;;;;;;5011682;28;20224;-39
2021/05/12 01:36:39;;;;;;;28.33;25.35;;;13.50;99.90;;;;;;5011684;28;20204;-38
2021/05/12 01:39:07;;;;;;;29.80;25.23;;;13.30;99.90;;;;;;4991916;28;20217;-42
2021/05/12 01:41:35;;;;;;;30.48;27.20;;;13.10;99.90;;;;;;5008555;28;20558;-39
2021/05/12 01:44:04;;;;;;;28.52;25.27;;;13.20;99.90;;;;;;5011423;28;20247;-39
2021/05/12 01:46:31;;;;;;;31.30;26.15;;;13.00;99.90;;;;;;5011168;28;20207;-38
2021/05/12 01:48:58;;;;;;;30.60;27.50;;;12.90;99.90;;;;;;5010929;28;20193;-42
2021/05/12 01:51:31;;;;;;;26.52;23.77;;;13.00;99.90;;;;;;5011169;28;20207;-39
2021/05/12 01:53:58;;;;;;;28.75;25.77;;;13.10;99.90;;;;;;5010107;28;20224;-41
2021/05/12 01:56:26;;;;;;;29.10;26.25;;;13.00;99.90;;;;;;5011349;28;20275;-40
2021/05/12 01:58:53;;;;;;;27.77;24.88;;;13.10;99.90;;;;;;5010703;28;20653;-39
2021/05/12 02:01:19;;;;;;;28.13;24.98;;;13.10;99.90;;;;;;5010988;28;20733;-40
2021/05/12 02:03:46;;;;;;;31.90;24.17;;;13.20;99.90;;;;;;5011361;28;20221;-41
2021/05/12 02:06:13;;;;;;;28.08;24.67;;;13.20;99.90;;;;;;5010986;28;20280;-40
2021/05/12 02:08:40;;;;;;;28.00;25.00;;;13.20;99.90;;;;;;5008753;28;20357;-39
2021/05/12 02:11:07;;;;;;;27.85;24.95;;;13.10;99.90;;;;;;5010856;28;20203;-40
2021/05/12 02:13:35;;;;;;;28.45;25.42;;;13.20;99.90;;;;;;5011156;28;20255;-39
2021/05/12 02:16:04;;;;;;;26.52;23.85;;;13.20;99.90;;;;;;5007977;28;20200;-39
2021/05/12 02:18:31;;;;;;;27.35;24.60;;;13.10;99.90;;;;;;5008733;28;20594;-41
2021/05/12 02:20:58;;;;;;;26.17;23.35;;;13.10;99.90;;;;;;5002546;28;20548;-39
2021/05/12 02:23:26;;;;;;;28.25;25.42;;;13.30;99.90;;;;;;5008362;28;20491;-40
2021/05/12 02:25:53;;;;;;;28.45;25.65;;;13.30;99.90;;;;;;5010601;28;20188;-38
2021/05/12 02:28:20;;;;;;;27.15;23.75;;;13.30;99.90;;;;;;5010529;28;20193;-42
2021/05/12 02:30:47;;;;;;;28.65;24.25;;;13.30;99.90;;;;;;5009024;28;20545;-39
2021/05/12 02:33:14;;;;;;;29.65;26.17;;;13.40;99.90;;;;;;5010744;28;20256;-40
2021/05/12 02:35:41;;;;;;;27.55;24.73;;;13.40;99.90;;;;;;5010058;28;20282;-39
2021/05/12 02:38:08;;;;;;;26.38;23.75;;;13.50;99.90;;;;;;5010096;28;20209;-39
2021/05/12 02:40:35;;;;;;;26.30;23.45;;;13.50;99.90;;;;;;5009729;28;20188;-40
2021/05/12 02:43:03;;;;;;;26.48;23.90;;;13.50;99.90;;;;;;5009566;28;20235;-39
2021/05/12 02:45:32;;;;;;;26.42;23.80;;;13.60;99.90;;;;;;5011044;28;20196;-39
2021/05/12 02:48:00;;;;;;;26.80;23.98;;;13.70;99.90;;;;;;5010345;28;20215;-41
2021/05/12 02:50:29;;;;;;;25.02;22.55;;;13.80;99.90;;;;;;5010429;28;20581;-41
2021/05/12 02:52:57;;;;;;;26.42;23.67;;;13.70;99.90;;;;;;5010260;28;20224;-39
2021/05/12 02:55:26;;;;;;;26.25;23.42;;;13.50;99.90;;;;;;5011034;28;20284;-38
2021/05/12 02:57:53;;;;;;;27.90;25.08;;;13.60;99.90;;;;;;5010635;28;20221;-39
2021/05/12 03:00:21;;;;;;;25.80;23.10;;;13.50;99.90;;;;;;5009445;28;20197;-41
2021/05/12 03:02:48;;;;;;;30.20;27.13;;;13.50;99.90;;;;;;5002626;28;20220;-41
2021/05/12 03:05:16;;;;;;;28.55;25.55;;;13.60;99.90;;;;;;5009887;28;20220;-39
2021/05/12 03:07:43;;;;;;;26.48;23.80;;;13.60;99.90;;;;;;5010204;28;20276;-40
2021/05/12 03:10:13;;;;;;;27.60;23.40;;;13.60;99.90;;;;;;5010099;28;20211;-41
2021/05/12 03:12:41;;;;;;;26.30;23.67;;;13.60;99.90;;;;;;5010535;28;20230;-40
2021/05/12 03:15:11;;;;;;;28.42;25.45;;;13.60;99.90;;;;;;5010264;28;20193;-40
2021/05/12 03:17:38;;;;;;;29.60;25.80;;;13.50;99.90;;;;;;5009712;28;20580;-39
2021/05/12 03:20:06;;;;;;;30.15;26.83;;;13.40;99.90;;;;;;5010040;28;20275;-39
2021/05/12 03:22:34;;;;;;;27.98;25.17;;;13.30;99.90;;;;;;5010604;28;20209;-39
2021/05/12 03:25:01;;;;;;;33.00;29.70;;;13.20;99.90;;;;;;5010091;28;20192;-39
2021/05/12 03:27:28;;;;;;;30.23;26.98;;;13.40;99.90;;;;;;5008577;28;20391;-39
2021/05/12 03:29:54;;;;;;;32.83;28.38;;;13.40;99.90;;;;;;5009192;28;20703;-39
2021/05/12 03:32:21;;;;;;;29.73;26.55;;;13.50;99.90;;;;;;5007838;28;20235;-40
2021/05/12 03:34:48;;;;;;;30.90;27.67;;;13.40;99.90;;;;;;5009690;28;20205;-41
2021/05/12 03:37:14;;;;;;;31.63;28.23;;;13.30;99.90;;;;;;5010244;28;20243;-40
2021/05/12 03:39:42;;;;;;;31.90;26.70;;;13.50;99.90;;;;;;5009343;28;20291;-40
2021/05/12 03:42:08;;;;;;;35.10;26.73;;;13.40;99.90;;;;;;5010350;28;20219;-39
2021/05/12 03:44:35;;;;;;;31.98;28.52;;;13.30;99.90;;;;;;5010048;28;20220;-40
2021/05/12 03:47:02;;;;;;;27.50;24.80;;;13.30;99.90;;;;;;5009791;28;20695;-39
2021/05/12 03:49:29;;;;;;;30.02;25.92;;;13.40;99.90;;;;;;5013122;28;20197;-41
2021/05/12 03:51:56;;;;;;;30.67;27.10;;;13.40;99.90;;;;;;5012725;28;20236;-39
2021/05/12 03:54:24;;;;;;;33.40;29.75;;;13.30;99.90;;;;;;5012340;28;20262;-41
2021/05/12 03:56:52;;;;;;;32.47;29.00;;;13.20;99.90;;;;;;5013171;28;20246;-41
2021/05/12 03:59:18;;;;;;;32.70;28.58;;;13.30;99.90;;;;;;5010698;28;20308;-43
2021/05/12 04:01:45;;;;;;;32.40;28.23;;;13.40;99.90;;;;;;5012944;28;20303;-39
2021/05/12 04:04:14;;;;;;;31.63;27.00;;;13.40;99.90;;;;;;5012484;28;20216;-40
2021/05/12 04:06:44;;;;;;;40.42;29.88;;;13.40;99.90;;;;;;5013300;28;20283;-39
2021/05/12 04:09:11;;;;;;;34.00;30.42;;;13.20;99.90;;;;;;4999587;28;20205;-40
2021/05/12 04:11:38;;;;;;;40.55;31.05;;;13.30;99.90;;;;;;5013177;28;20204;-42
2021/05/12 04:14:06;;;;;;;40.75;32.90;;;13.20;99.90;;;;;;5013136;28;20212;-39
2021/05/12 04:16:33;;;;;;;38.30;32.63;;;13.30;99.90;;;;;;5011303;28;20192;-39
2021/05/12 04:19:03;;;;;;;45.80;35.15;;;13.30;99.90;;;;;;5008842;28;20320;-39
2021/05/12 04:21:30;;;;;;;52.25;39.75;;;13.30;99.90;;;;;;5011576;28;20667;-40
2021/05/12 04:23:56;;;;;;;50.80;38.58;;;13.20;99.90;;;;;;5007891;28;20218;-42
2021/05/12 04:26:23;;;;;;;53.30;39.35;;;13.30;99.90;;;;;;4999667;28;20297;-41
2021/05/12 04:28:50;;;;;;;50.00;37.88;;;13.30;99.90;;;;;;5011536;28;20189;-39
2021/05/12 04:31:17;;;;;;;58.63;42.00;;;13.40;99.90;;;;;;5012511;28;20402;-40
2021/05/12 04:33:44;;;;;;;61.75;41.90;;;13.30;99.90;;;;;;5040487;23;20740;-38
2021/05/12 04:36:10;;;;;;;67.70;44.90;;;13.20;99.90;;;;;;5050112;28;20230;-40
2021/05/12 04:38:37;;;;;;;54.17;41.35;;;13.30;99.90;;;;;;5050349;28;20219;-38
2021/05/12 04:41:03;;;;;;;60.38;42.92;;;13.30;99.90;;;;;;5051042;28;20690;-39
2021/05/12 04:43:30;;;;;;;55.15;38.83;;;13.30;99.90;;;;;;5044040;28;20212;-38
2021/05/12 04:45:57;;;;;;;60.75;45.42;;;13.30;99.90;;;;;;5021799;28;20197;-39
2021/05/12 04:48:24;;;;;;;56.13;42.22;;;13.20;99.90;;;;;;5013140;28;20283;-39
2021/05/12 04:50:51;;;;;;;53.58;40.72;;;13.50;99.90;;;;;;5027365;28;20204;-39
2021/05/12 04:53:17;;;;;;;56.80;42.25;;;13.50;99.90;;;;;;5025383;28;20780;-39
2021/05/12 04:55:44;;;;;;;55.38;42.88;;;13.40;99.90;;;;;;5021897;28;20270;-37
2021/05/12 04:58:11;;;;;;;61.13;44.00;;;13.50;99.90;;;;;;5017190;28;20235;-38
2021/05/12 05:00:38;;;;;;;57.85;43.67;;;13.50;99.90;;;;;;5021234;28;20597;-38
2021/05/12 05:03:07;;;;;;;46.00;38.35;;;13.70;99.90;;;;;;5025818;28;20870;-39
2021/05/12 05:05:34;;;;;;;53.35;43.00;;;13.60;99.90;;;;;;5024848;28;20579;-38
2021/05/12 05:08:00;;;;;;;48.85;39.35;;;13.70;99.90;;;;;;5018152;28;20275;-38
2021/05/12 05:10:27;;;;;;;49.42;39.15;;;13.70;99.90;;;;;;5012028;28;20515;-39
2021/05/12 05:12:54;;;;;;;48.60;38.65;;;13.70;99.90;;;;;;5025209;28;20265;-39
2021/05/12 05:15:20;;;;;;;52.65;40.58;;;13.80;99.90;;;;;;5028652;28;20192;-38
2021/05/12 05:17:49;;;;;;;51.20;41.00;;;13.70;99.90;;;;;;5023472;28;20254;-38
2021/05/12 05:20:17;;;;;;;48.33;38.40;;;13.70;99.90;;;;;;5019878;28;20255;-38
2021/05/12 05:22:44;;;;;;;48.47;39.30;;;13.80;99.90;;;;;;5024175;28;20581;-39
2021/05/12 05:25:12;;;;;;;44.55;34.80;;;13.80;99.90;;;;;;5018745;28;20354;-39
2021/05/12 05:27:38;;;;;;;48.25;39.83;;;13.90;99.90;;;;;;5032285;28;20276;-38
2021/05/12 05:30:06;;;;;;;42.90;36.00;;;14.00;99.90;;;;;;5030490;28;20211;-38
2021/05/12 05:32:51;;;;;;;48.22;37.72;;;14.00;99.90;;;;;;5025998;28;20193;-38
2021/05/12 05:35:36;;;;;;;44.92;37.15;;;14.00;99.90;;;;;;5024423;28;20192;-38
2021/05/12 05:38:22;;;;;;;39.30;33.67;;;13.90;99.90;;;;;;5023627;28;20212;-38
2021/05/12 05:41:08;;;;;;;43.50;36.40;;;13.80;99.90;;;;;;5014389;28;20197;-39
2021/05/12 05:43:53;;;;;;;41.47;34.58;;;13.80;99.90;;;;;;5019896;28;20216;-38
2021/05/12 05:46:39;;;;;;;40.55;32.88;;;13.70;99.90;;;;;;5022705;28;20612;-38
2021/05/12 05:49:27;;;;;;;36.78;31.38;;;13.70;99.90;;;;;;4998423;28;20594;-40
2021/05/12 05:52:12;;;;;;;38.53;31.38;;;13.90;99.90;;;;;;5029154;28;20283;-38
2021/05/12 05:55:00;;;;;;;39.72;30.27;;;13.80;99.90;;;;;;5024201;28;20203;-38
2021/05/12 05:57:47;;;;;;;34.38;30.13;;;13.70;99.90;;;;;;5023995;28;20247;-38
2021/05/12 06:00:33;;;;;;;35.45;29.83;;;13.80;99.90;;;;;;5023366;28;20616;-38
2021/05/12 06:03:01;;;;;;;33.15;28.75;;;13.80;99.90;;;;;;5013882;28;20213;-40
2021/05/12 06:05:48;;;;;;;31.55;28.10;;;13.70;99.90;;;;;;5029425;28;20287;-40
2021/05/12 06:08:33;;;;;;;35.28;30.23;;;13.70;99.90;;;;;;5014427;28;20213;-38
2021/05/12 06:11:19;;;;;;;37.55;28.70;;;13.90;99.90;;;;;;5017801;28;20192;-39
2021/05/12 06:14:05;;;;;;;29.48;25.55;;;13.90;99.90;;;;;;5030227;28;20230;-38
2021/05/12 06:16:52;;;;;;;31.52;25.65;;;14.00;99.90;;;;;;5025259;28;20291;-39
2021/05/12 06:19:37;;;;;;;29.30;25.08;;;14.10;99.90;;;;;;5023113;28;20584;-38
2021/05/12 06:22:23;;;;;;;29.33;25.42;;;14.00;99.90;;;;;;5026434;28;20226;-38
2021/05/12 06:25:10;;;;;;;31.92;27.92;;;13.90;99.90;;;;;;5030613;28;20250;-37
2021/05/12 06:27:57;;;;;;;31.88;26.60;;;13.80;99.90;;;;;;5029159;28;20219;-39
2021/05/12 06:30:48;;;;;;;24.63;22.00;;;13.90;99.90;;;;;;5030677;28;20207;-37
2021/05/12 06:33:34;;;;;;;25.38;22.70;;;13.80;99.90;;;;;;5028799;28;20838;-40
2021/05/12 06:36:20;;;;;;;24.90;20.73;;;13.80;99.90;;;;;;5030687;28;20693;-38
2021/05/12 06:39:06;;;;;;;21.70;19.50;;;13.70;99.90;;;;;;5030259;28;20422;-38
2021/05/12 06:41:34;;;;;;;22.33;19.15;;;13.70;99.90;;;;;;5029293;28;20200;-38
2021/05/12 06:44:03;;;;;;;19.92;17.98;;;13.70;99.90;;;;;;5030283;28;20247;-38
2021/05/12 06:46:30;;;;;;;20.30;17.73;;;13.80;99.90;;;;;;5028899;28;20282;-39
2021/05/12 06:48:57;;;;;;;17.83;15.93;;;14.10;99.90;;;;;;5028783;28;20196;-39
2021/05/12 06:51:23;;;;;;;18.40;16.60;;;14.00;99.90;;;;;;5025684;28;20629;-38
2021/05/12 06:53:50;;;;;;;20.27;18.25;;;13.90;99.90;;;;;;5019507;28;20707;-40
2021/05/12 06:56:17;;;;;;;19.13;17.23;;;13.80;99.90;;;;;;5016296;28;20276;-40
2021/05/12 06:58:43;;;;;;;21.77;19.10;;;13.90;99.90;;;;;;5017487;28;20244;-39
2021/05/12 07:01:13;;;;;;;23.42;20.88;;;14.00;99.90;;;;;;5011769;28;20225;-39
2021/05/12 07:03:40;;;;;;;23.02;19.05;;;14.00;99.90;;;;;;5021753;28;20216;-39
2021/05/12 07:06:06;;;;;;;21.77;19.45;;;14.00;99.90;;;;;;5023641;28;20226;-39
2021/05/12 07:08:34;;;;;;;21.65;17.98;;;13.90;99.90;;;;;;5019665;28;20200;-39
2021/05/12 07:11:01;;;;;;;23.00;19.88;;;13.80;99.90;;;;;;5021148;28;20200;-39
2021/05/12 07:13:27;;;;;;;20.90;18.58;;;13.80;99.90;;;;;;5011409;28;20925;-39
2021/05/12 07:15:54;;;;;;;22.80;18.48;;;13.70;99.90;;;;;;5024539;28;20548;-40
2021/05/12 07:18:22;;;;;;;23.42;20.65;;;13.80;99.90;;;;;;5009232;28;20703;-39
2021/05/12 07:20:49;;;;;;;21.77;19.45;;;13.80;99.90;;;;;;5010065;28;20192;-40
2021/05/12 07:23:20;;;;;;;18.55;16.73;;;13.80;99.90;;;;;;5012460;28;20231;-38
2021/05/12 07:25:48;;;;;;;22.60;19.35;;;13.80;99.90;;;;;;5029561;28;20206;-40
2021/05/12 07:28:15;;;;;;;20.25;18.25;;;13.90;99.90;;;;;;5022084;28;20188;-39
2021/05/12 07:30:42;;;;;;;20.25;18.23;;;13.80;99.90;;;;;;5025298;28;20310;-39
2021/05/12 07:33:09;;;;;;;18.67;16.70;;;13.90;99.90;;;;;;5007304;28;20281;-40
2021/05/12 07:35:38;;;;;;;21.63;19.40;;;13.80;99.90;;;;;;5032418;28;20295;-39
2021/05/12 07:38:05;;;;;;;19.40;17.30;;;13.80;99.90;;;;;;5027988;28;20216;-39
2021/05/12 07:40:33;;;;;;;22.05;19.80;;;13.80;99.90;;;;;;5019948;28;20224;-40
2021/05/12 07:43:00;;;;;;;22.17;18.73;;;13.90;99.90;;;;;;5029808;28;20302;-40
2021/05/12 07:45:27;;;;;;;22.40;18.00;;;14.00;99.90;;;;;;5018336;28;20226;-37
2021/05/12 07:47:53;;;;;;;20.42;17.50;;;14.00;99.90;;;;;;5031502;28;20601;-37
2021/05/12 07:50:20;;;;;;;15.43;13.95;;;14.10;99.90;;;;;;5028651;28;20196;-39
2021/05/12 07:52:47;;;;;;;17.55;15.85;;;14.00;99.90;;;;;;5017045;28;20639;-38
2021/05/12 07:55:14;;;;;;;15.55;14.00;;;14.00;99.90;;;;;;5016687;28;20639;-39
2021/05/12 07:57:41;;;;;;;16.23;14.45;;;14.10;99.90;;;;;;5030220;28;20199;-38
2021/05/12 08:00:09;;;;;;;20.48;15.18;;;14.30;99.90;;;;;;5022215;28;20708;-38
2021/05/12 08:02:39;;;;;;;14.23;12.82;;;14.30;99.90;;;;;;5029754;28;20726;-38
2021/05/12 08:05:07;;;;;;;17.20;15.05;;;14.20;99.90;;;;;;5016313;28;20206;-38
2021/05/12 08:07:34;;;;;;;13.55;12.07;;;14.30;99.90;;;;;;5032134;28;20196;-38
2021/05/12 08:10:01;;;;;;;15.02;13.57;;;14.40;99.90;;;;;;5026784;28;20222;-39
2021/05/12 08:12:28;;;;;;;15.70;14.23;;;14.50;99.90;;;;;;5020292;28;20471;-39
2021/05/12 08:14:54;;;;;;;15.02;13.45;;;14.40;99.90;;;;;;5028630;28;20243;-39
2021/05/12 08:17:21;;;;;;;16.50;14.57;;;14.40;99.90;;;;;;5018522;28;20212;-39
2021/05/12 08:19:48;;;;;;;16.85;14.98;;;14.50;99.90;;;;;;5021919;28;20211;-39
2021/05/12 08:22:15;;;;;;;16.40;14.77;;;14.50;99.90;;;;;;5022628;28;20200;-39
2021/05/12 08:24:42;;;;;;;16.25;14.65;;;14.60;99.90;;;;;;5018167;28;20217;-39
2021/05/12 08:27:09;;;;;;;15.20;13.68;;;14.50;99.90;;;;;;5024003;28;20395;-41
2021/05/12 08:29:37;;;;;;;14.85;13.30;;;14.60;99.90;;;;;;5027285;28;20204;-39
2021/05/12 08:32:05;;;;;;;14.43;13.10;;;14.60;99.90;;;;;;5028772;28;20662;-39
2021/05/12 08:34:32;;;;;;;16.95;13.77;;;14.70;99.90;;;;;;5021609;28;20279;-40
2021/05/12 08:36:59;;;;;;;13.95;12.52;;;15.00;99.90;;;;;;5022807;28;20262;-42
2021/05/12 08:39:25;;;;;;;15.07;13.55;;;15.10;99.90;;;;;;5017442;28;20223;-40
2021/05/12 08:41:52;;;;;;;14.00;12.27;;;15.20;99.90;;;;;;5024997;28;20197;-39
2021/05/12 08:44:21;;;;;;;14.40;13.20;;;15.20;99.90;;;;;;5028057;28;20205;-41
2021/05/12 08:46:50;;;;;;;15.40;12.20;;;15.10;99.90;;;;;;5018566;28;20228;-39
2021/05/12 08:49:18;;;;;;;13.75;12.32;;;15.10;99.90;;;;;;5023123;28;20570;-39
2021/05/12 08:51:45;;;;;;;15.38;12.90;;;15.20;99.90;;;;;;5025525;28;20594;-39
2021/05/12 08:54:13;;;;;;;12.30;11.10;;;15.40;99.90;;;;;;5020997;28;20215;-39
2021/05/12 08:56:40;;;;;;;12.32;11.23;;;15.40;99.90;;;;;;5024158;28;20279;-40
2021/05/12 08:59:07;;;;;;;11.90;10.73;;;15.50;99.90;;;;;;5022420;28;20210;-39
2021/05/12 09:01:35;;;;;;;12.65;11.50;;;15.50;99.90;;;;;;5027043;28;20246;-39
2021/05/12 09:04:02;;;;;;;11.57;10.57;;;15.50;99.90;;;;;;5028486;28;20212;-39
2021/05/12 09:06:30;;;;;;;11.85;10.75;;;15.50;99.90;;;;;;5017904;28;20641;-40
2021/05/12 09:08:58;;;;;;;12.02;10.82;;;15.60;99.90;;;;;;5020341;28;20203;-41
2021/05/12 09:11:25;;;;;;;10.93;9.93;;;16.00;99.90;;;;;;5015642;28;20231;-39
2021/05/12 09:13:52;;;;;;;11.40;10.30;;;15.90;99.90;;;;;;5023062;28;20270;-38
2021/05/12 09:16:23;;;;;;;10.40;9.38;;;16.10;99.90;;;;;;5022094;28;20192;-39
2021/05/12 09:19:01;;;;;;;11.52;10.45;;;16.20;99.90;;;;;;5014463;28;20246;-39
2021/05/12 09:21:45;;;;;;;11.48;10.38;;;16.30;99.90;;;;;;5013348;28;20206;-39
2021/05/12 09:24:20;;;;;;;10.40;9.20;;;16.10;99.90;;;;;;5012986;28;20710;-39
2021/05/12 09:26:47;;;;;;;12.05;10.85;;;16.00;99.90;;;;;;5024353;28;20196;-39
2021/05/12 09:29:21;;;;;;;11.45;10.35;;;15.80;99.90;;;;;;5026908;28;20200;-40
2021/05/12 09:31:49;;;;;;;11.35;10.40;;;15.40;99.90;;;;;;5031370;28;20188;-39
2021/05/12 09:34:16;;;;;;;12.48;9.57;;;15.10;99.90;;;;;;5031837;28;20215;-38
2021/05/12 09:36:43;;;;;;;11.65;10.55;;;15.00;99.90;;;;;;5020902;28;20205;-38
2021/05/12 09:39:10;;;;;;;12.82;11.63;;;15.40;99.90;;;;;;5029313;28;20697;-39
2021/05/12 09:41:40;;;;;;;11.25;10.13;;;15.50;99.90;;;;;;5027633;28;20216;-39
2021/05/12 09:44:07;;;;;;;11.35;9.88;;;15.30;99.90;;;;;;5022638;28;20224;-38
2021/05/12 09:46:35;;;;;;;12.38;11.27;;;15.30;99.90;;;;;;5031945;28;20666;-38
2021/05/12 09:49:15;;;;;;;11.02;9.88;;;15.40;99.90;;;;;;5047055;28;20196;-38
2021/05/12 09:51:45;;;;;;;10.57;9.63;;;15.50;99.90;;;;;;5025693;28;20207;-39
2021/05/12 09:54:16;;;;;;;11.82;10.73;;;15.30;99.90;;;;;;5017302;28;20244;-39
2021/05/12 09:56:50;;;;;;;11.45;10.45;;;15.30;99.90;;;;;;5011999;28;20756;-39
2021/05/12 09:59:19;;;;;;;11.90;10.88;;;15.50;99.90;;;;;;5029535;28;20216;-39
2021/05/12 10:01:56;;;;;;;11.13;10.10;;;15.80;99.90;;;;;;5014975;28;20547;-39
2021/05/12 10:04:36;;;;;;;11.82;10.63;;;16.20;99.90;;;;;;5020530;28;20298;-39
2021/05/12 10:07:15;;;;;;;11.98;10.82;;;16.30;99.90;;;;;;5028514;28;20200;-39
2021/05/12 10:09:43;;;;;;;12.60;11.40;;;16.30;99.90;;;;;;5018837;28;20249;-39
2021/05/12 10:12:12;;;;;;;13.75;12.43;;;16.20;99.90;;;;;;5026810;28;20682;-39
2021/05/12 10:14:42;;;;;;;10.57;9.63;;;16.50;99.90;;;;;;5015115;28;20227;-40
2021/05/12 10:17:10;;;;;;;12.90;11.07;;;16.30;99.90;;;;;;5021017;28;20203;-40
2021/05/12 10:19:57;;;;;;;10.65;9.52;;;16.40;99.90;;;;;;5044388;23;20227;-79
2021/05/12 10:22:24;;;;;;;13.07;11.85;;;16.50;99.90;;;;;;5049191;28;20199;-80
2021/05/12 10:24:52;;;;;;;11.25;10.25;;;16.70;99.90;;;;;;5033492;28;20207;-79
2021/05/12 10:27:25;;;;;;;13.82;12.35;;;16.60;99.90;;;;;;5037941;28;20196;-79
2021/05/12 10:29:53;;;;;;;13.07;11.50;;;16.60;99.90;;;;;;5038910;28;20192;-79
2021/05/12 10:32:25;;;;;;;13.10;11.85;;;16.60;99.90;;;;;;5058523;23;20272;-39
2021/05/12 10:35:04;;;;;;;11.70;10.48;;;16.40;99.90;;;;;;5051880;28;20191;-39
2021/05/12 10:37:33;;;;;;;12.73;10.38;;;16.20;99.90;;;;;;5051195;28;20520;-39
2021/05/12 10:40:02;;;;;;;11.43;10.45;;;16.30;99.90;;;;;;5049560;28;20243;-38
2021/05/12 10:43:07;;;;;;;13.18;11.65;;;16.60;99.90;;;;;;5039214;28;20224;-39
2021/05/12 10:45:57;;;;;;;12.60;11.23;;;16.40;99.90;;;;;;5050534;23;20239;-39
2021/05/12 10:48:39;;;;;;;12.07;10.98;;;16.40;99.90;;;;;;5010832;28;20201;-38
2021/05/12 10:51:07;;;;;;;11.30;10.13;;;16.40;99.90;;;;;;5022018;28;20199;-38
2021/05/12 10:53:44;;;;;;;11.30;10.30;;;16.60;99.90;;;;;;5030458;28;20251;-39
2021/05/12 10:56:11;;;;;;;12.50;11.25;;;16.70;99.90;;;;;;5030143;28;20576;-40
2021/05/12 10:58:55;;;;;;;12.43;10.77;;;16.80;99.90;;;;;;5029639;28;20315;-39
2021/05/12 11:01:22;;;;;;;10.45;9.45;;;17.00;99.90;;;;;;5027689;28;20200;-42
2021/05/12 11:04:15;;;;;;;13.30;10.52;;;17.00;99.90;;;;;;5029049;28;20196;-40
2021/05/12 11:07:07;;;;;;;11.60;10.32;;;16.70;99.90;;;;;;5030170;28;20597;-40
2021/05/12 11:09:49;;;;;;;13.07;10.95;;;16.70;99.90;;;;;;5029526;28;20203;-41
2021/05/12 11:12:23;;;;;;;12.38;11.18;;;17.10;99.90;;;;;;5029903;28;20253;-37
2021/05/12 11:15:01;;;;;;;12.18;11.05;;;17.20;99.90;;;;;;5030221;28;20733;-37
2021/05/12 11:17:49;;;;;;;13.88;12.60;;;17.10;99.90;;;;;;5030003;28;20192;-38
2021/05/12 11:20:22;;;;;;;16.83;12.32;;;17.30;99.90;;;;;;5029386;28;20228;-39
2021/05/12 11:22:50;;;;;;;11.85;10.85;;;17.50;99.90;;;;;;5029924;28;20200;-38
2021/05/12 11:25:27;;;;;;;12.10;11.00;;;17.80;99.90;;;;;;5029768;28;20561;-39
2021/05/12 11:31:27;;;;;;;13.18;11.75;;;17.30;99.90;;;;;;5029328;28;20203;-38
2021/05/12 11:33:54;;;;;;;13.57;12.25;;;17.30;99.90;;;;;;5030122;28;20339;-39
2021/05/12 11:36:23;;;;;;;12.85;11.50;;;17.10;99.90;;;;;;5028746;28;20294;-39
2021/05/12 11:38:51;;;;;;;16.25;12.65;;;17.10;99.90;;;;;;5029667;28;20223;-39
2021/05/12 11:41:20;;;;;;;13.93;12.57;;;17.20;99.90;;;;;;5029910;28;20200;-38
2021/05/12 11:43:50;;;;;;;13.57;12.18;;;17.60;99.90;;;;;;5029910;28;20262;-38
2021/05/12 11:46:19;;;;;;;11.45;10.07;;;17.70;99.90;;;;;;5030507;28;20568;-38
2021/05/12 11:48:49;;;;;;;10.60;9.60;;;17.80;99.90;;;;;;5029147;28;20196;-38
2021/05/12 11:51:28;;;;;;;10.45;9.45;;;17.70;99.90;;;;;;5028634;28;20200;-38
2021/05/12 11:53:56;;;;;;;10.70;9.68;;;17.50;99.90;;;;;;5028517;28;20211;-38
2021/05/12 11:56:24;;;;;;;10.35;9.38;;;17.70;99.90;;;;;;5018610;28;20745;-39
2021/05/12 11:58:54;;;;;;;9.95;9.10;;;17.50;99.90;;;;;;5018386;28;20568;-39
2021/05/12 12:01:21;;;;;;;10.70;9.70;;;17.90;99.90;;;;;;5022033;28;20192;-39
2021/05/12 12:03:56;;;;;;;10.00;9.07;;;18.20;99.90;;;;;;5029617;28;20609;-38
2021/05/12 12:06:23;;;;;;;11.70;10.50;;;18.10;99.90;;;;;;5030039;28;20225;-38
2021/05/12 12:08:49;;;;;;;9.57;8.52;;;18.10;99.90;;;;;;5030475;28;20200;-38
2021/05/12 12:11:18;;;;;;;9.40;8.50;;;18.30;99.90;;;;;;5033161;28;20216;-39
2021/05/12 12:13:46;;;;;;;9.48;8.57;;;18.00;99.90;;;;;;5025066;28;20246;-40
2021/05/12 12:16:14;;;;;;;11.35;8.02;;;18.10;99.90;;;;;;5032869;28;20220;-40
2021/05/12 12:18:42;;;;;;;10.18;8.13;;;18.10;99.90;;;;;;5032690;28;20211;-39
2021/05/12 12:21:11;;;;;;;9.88;6.78;;;18.30;99.90;;;;;;5031755;28;20199;-38
2021/05/12 12:23:40;;;;;;;37.47;13.45;;;18.40;99.90;;;;;;5032265;28;20200;-38
2021/05/12 12:26:16;;;;;;;15.85;7.78;;;18.80;99.90;;;;;;5033605;28;20254;-39
2021/05/12 12:28:49;;;;;;;8.15;7.38;;;18.60;99.90;;;;;;5031988;28;20717;-39
2021/05/12 12:31:21;;;;;;;7.45;6.38;;;19.00;99.90;;;;;;5031891;28;20200;-40
2021/05/12 12:34:08;;;;;;;7.50;6.10;;;19.40;99.90;;;;;;5032086;28;20230;-38
2021/05/12 12:36:45;;;;;;;6.40;5.63;;;19.50;99.90;;;;;;5031711;28;20728;-38
2021/05/12 12:39:13;;;;;;;5.30;4.80;;;19.60;99.90;;;;;;5031842;28;20360;-40
2021/05/12 12:41:40;;;;;;;6.10;5.53;;;19.90;99.90;;;;;;5032167;28;20196;-39
2021/05/12 12:44:07;;;;;;;10.52;6.07;;;19.90;99.90;;;;;;5032168;28;20196;-38
2021/05/12 12:46:34;;;;;;;9.32;6.65;;;19.50;99.90;;;;;;5031482;28;20232;-38